Terminal Aerodrome Forecast
Issued by NWS

Home | Current Version | Previous Version | Text Only | Print | Product List | Glossary On
Versions: 1 2 3 4 5 6 7 8 9 10 11 12 13 14 15 16 17 18 19 20 21 22 23 24 25
117
FTUS41 KOKX 232148 AAE
TAFSWF
TAF AMD
KSWF 232148Z 2322/2424 28005KT P6SM BKN100
     FM240000 27004KT P6SM SCT100
     FM240200 29005KT P6SM SCT200
     FM241700 24005KT P6SM SKC
     FM242200 21005KT P6SM SKC
      AMD NOT SKED=

USA.gov is the U.S. government's official web portal to all federal, state and local government web resources and services.